Time;durP1;ratioP1;P1;durP2;ratioP2;P2;SDS_P1;SDS_P2;PMS_P1;PMS_P2;Temp;Humidity;BMP_temperature;BMP_pressure;BME280_temperature;BME280_humidity;BME280_pressure;Samples;Min_cycle;Max_cycle;Signal;HPM_P1;HPM_P2
2021/12/04 00:01:11;;;;;;;22.48;9.25;;;;;;;;;;4949912;28;20455;-64
2021/12/04 00:03:37;;;;;;;23.20;8.38;;;;;;;;;;4949748;28;20334;-64
2021/12/04 00:06:07;;;;;;;20.92;9.70;;;;;;;;;;4933356;28;20350;-65
2021/12/04 00:08:35;;;;;;;23.00;10.32;;;;;;;;;;4949705;28;20030;-64
2021/12/04 00:11:01;;;;;;;23.23;9.35;;;;;;;;;;4949672;28;20422;-64
2021/12/04 00:13:27;;;;;;;21.13;9.88;;;;;;;;;;4949983;28;20030;-64
2021/12/04 00:15:52;;;;;;;25.65;10.13;;;;;;;;;;4949813;28;20076;-64
2021/12/04 00:18:17;;;;;;;23.95;10.07;;;;;;;;;;4949515;28;20481;-65
2021/12/04 00:20:43;;;;;;;22.55;9.30;;;;;;;;;;4950019;28;20438;-64
2021/12/04 00:23:08;;;;;;;26.75;8.90;;;;;;;;;;4949341;28;20103;-64
2021/12/04 00:25:34;;;;;;;26.67;10.43;;;;;;;;;;4949702;28;20349;-65
2021/12/04 00:27:59;;;;;;;27.13;9.93;;;;;;;;;;4949227;28;20128;-64
2021/12/04 00:30:26;;;;;;;19.42;8.13;;;;;;;;;;4950280;28;20336;-64
2021/12/04 00:32:56;;;;;;;25.48;10.57;;;;;;;;;;4949750;28;20453;-65
2021/12/04 00:35:34;;;;;;;19.33;7.95;;;;;;;;;;4949910;28;20430;-65
2021/12/04 00:49:10;;;;;;;19.00;7.50;;;;;;;;;;4954333;28;20457;-64
2021/12/04 00:51:40;;;;;;;17.35;8.15;;;;;;;;;;4954035;28;20050;-64
2021/12/04 00:54:05;;;;;;;21.85;9.25;;;;;;;;;;4952766;28;20341;-64
2021/12/04 00:56:32;;;;;;;23.25;9.35;;;;;;;;;;4953618;28;20310;-64
2021/12/04 00:58:57;;;;;;;20.15;8.45;;;;;;;;;;4953622;28;20422;-64
2021/12/04 01:01:23;;;;;;;22.67;9.60;;;;;;;;;;4957697;28;20409;-65
2021/12/04 01:03:48;;;;;;;25.63;9.20;;;;;;;;;;4965474;28;20419;-64
2021/12/04 01:06:13;;;;;;;21.67;8.45;;;;;;;;;;4974116;28;20459;-64
2021/12/04 01:08:39;;;;;;;25.73;8.70;;;;;;;;;;4972018;28;20048;-65
2021/12/04 01:11:05;;;;;;;23.58;9.32;;;;;;;;;;4972492;28;20321;-65
2021/12/04 01:13:31;;;;;;;18.70;7.60;;;;;;;;;;4972467;28;20034;-64
2021/12/04 01:15:57;;;;;;;19.65;7.97;;;;;;;;;;4974206;28;20025;-65
2021/12/04 01:18:22;;;;;;;21.25;8.88;;;;;;;;;;4971970;28;20501;-64
2021/12/04 01:20:48;;;;;;;20.65;8.15;;;;;;;;;;4972233;28;20368;-64
2021/12/04 01:23:16;;;;;;;21.10;8.45;;;;;;;;;;4970706;28;20347;-64
2021/12/04 01:25:42;;;;;;;24.93;8.13;;;;;;;;;;4972355;28;20348;-65
2021/12/04 01:28:07;;;;;;;18.55;7.70;;;;;;;;;;4972001;28;20347;-64
2021/12/04 01:30:33;;;;;;;21.85;9.05;;;;;;;;;;4971909;28;20054;-64
2021/12/04 01:32:58;;;;;;;22.10;8.15;;;;;;;;;;4971337;28;20433;-64
2021/12/04 01:35:23;;;;;;;24.25;8.82;;;;;;;;;;4972068;28;20500;-64
2021/12/04 01:37:49;;;;;;;19.77;8.27;;;;;;;;;;4971381;28;20456;-65
2021/12/04 01:40:14;;;;;;;20.17;7.40;;;;;;;;;;4973190;28;20029;-65
2021/12/04 01:42:40;;;;;;;21.05;7.32;;;;;;;;;;4954083;28;20444;-65
2021/12/04 01:45:06;;;;;;;20.58;7.60;;;;;;;;;;4971869;28;20413;-64
2021/12/04 01:47:32;;;;;;;23.65;8.68;;;;;;;;;;4969769;28;20383;-64
2021/12/04 01:49:59;;;;;;;22.48;8.07;;;;;;;;;;4971226;28;20379;-65
2021/12/04 01:52:25;;;;;;;20.80;7.78;;;;;;;;;;4968832;28;20409;-64
2021/12/04 01:54:53;;;;;;;19.95;7.82;;;;;;;;;;4971791;28;20367;-65
2021/12/04 01:57:20;;;;;;;20.88;7.90;;;;;;;;;;4971367;28;20340;-64
2021/12/04 01:59:45;;;;;;;19.25;7.68;;;;;;;;;;4971180;28;20574;-65
2021/12/04 02:02:11;;;;;;;17.45;7.65;;;;;;;;;;4971616;28;20391;-65
2021/12/04 02:04:37;;;;;;;17.83;8.05;;;;;;;;;;4971146;28;20104;-65
2021/12/04 02:07:05;;;;;;;22.08;8.07;;;;;;;;;;4970796;28;20360;-66
2021/12/04 02:09:32;;;;;;;15.98;7.07;;;;;;;;;;4953792;28;20048;-64
2021/12/04 02:11:58;;;;;;;19.67;7.60;;;;;;;;;;4971015;28;20364;-64
2021/12/04 02:14:23;;;;;;;17.15;7.82;;;;;;;;;;4953317;28;20048;-65
2021/12/04 02:16:50;;;;;;;21.95;8.23;;;;;;;;;;4971203;28;20420;-65
2021/12/04 02:19:16;;;;;;;20.55;6.82;;;;;;;;;;4971517;28;20328;-65
2021/12/04 02:21:42;;;;;;;19.38;8.15;;;;;;;;;;4970982;28;20407;-64
2021/12/04 02:24:07;;;;;;;18.13;7.63;;;;;;;;;;4971226;28;20061;-65
2021/12/04 02:26:32;;;;;;;16.77;7.05;;;;;;;;;;4970630;28;20033;-64
2021/12/04 02:28:58;;;;;;;17.88;6.65;;;;;;;;;;4970954;28;20504;-64
2021/12/04 02:31:24;;;;;;;17.10;6.50;;;;;;;;;;4970900;28;20459;-64
2021/12/04 02:33:50;;;;;;;15.73;6.82;;;;;;;;;;4970685;28;20472;-64
2021/12/04 02:36:16;;;;;;;20.02;7.32;;;;;;;;;;4971031;28;20433;-65
2021/12/04 02:38:46;;;;;;;17.50;7.07;;;;;;;;;;4970466;28;20329;-64
2021/12/04 02:41:12;;;;;;;19.20;7.20;;;;;;;;;;4970610;28;20427;-64
2021/12/04 02:43:37;;;;;;;15.45;6.65;;;;;;;;;;4970523;28;20154;-65
2021/12/04 02:46:03;;;;;;;18.35;6.95;;;;;;;;;;4971284;28;20341;-64
2021/12/04 02:48:28;;;;;;;18.08;7.28;;;;;;;;;;4970512;28;20432;-65
2021/12/04 02:50:54;;;;;;;14.93;6.57;;;;;;;;;;4970445;28;20360;-64
2021/12/04 02:53:19;;;;;;;16.80;6.40;;;;;;;;;;4970058;28;20441;-64
2021/12/04 02:55:45;;;;;;;15.57;6.28;;;;;;;;;;4970646;28;20409;-64
2021/12/04 02:58:13;;;;;;;19.40;6.90;;;;;;;;;;4970051;28;20346;-64
2021/12/04 03:00:46;;;;;;;12.43;6.35;;;;;;;;;;4969818;28;20060;-65
2021/12/04 03:03:11;;;;;;;14.43;6.80;;;;;;;;;;4970075;28;20464;-64
2021/12/04 03:05:37;;;;;;;15.43;6.38;;;;;;;;;;4969733;28;20463;-64
2021/12/04 03:08:03;;;;;;;14.02;5.97;;;;;;;;;;4970266;28;20487;-67
2021/12/04 03:10:28;;;;;;;17.95;6.60;;;;;;;;;;4971604;28;20336;-64
2021/12/04 03:12:54;;;;;;;12.75;5.45;;;;;;;;;;4970429;28;20398;-64
2021/12/04 03:15:21;;;;;;;14.32;6.32;;;;;;;;;;4968431;28;20033;-65
2021/12/04 03:17:46;;;;;;;13.70;5.75;;;;;;;;;;4969704;28;20033;-64
2021/12/04 03:20:11;;;;;;;14.90;5.85;;;;;;;;;;4970458;28;20091;-64
2021/12/04 03:22:40;;;;;;;14.30;7.00;;;;;;;;;;4969721;28;20491;-65
2021/12/04 03:25:06;;;;;;;16.42;5.93;;;;;;;;;;4969492;28;20524;-64
2021/12/04 03:27:33;;;;;;;13.15;6.22;;;;;;;;;;4971242;28;20301;-64
2021/12/04 03:30:03;;;;;;;12.45;6.07;;;;;;;;;;4970086;28;20512;-64
2021/12/04 03:32:55;;;;;;;14.00;5.63;;;;;;;;;;4969424;28;20048;-64
2021/12/04 03:41:02;;;;;;;16.27;6.15;;;;;;;;;;4899507;28;20521;-64
2021/12/04 03:43:29;;;;;;;12.30;4.95;;;;;;;;;;4969664;28;20029;-64
2021/12/04 03:46:01;;;;;;;15.45;5.47;;;;;;;;;;4970143;28;20033;-64
2021/12/04 03:50:57;;;;;;;15.30;5.28;;;;;;;;;;4969594;28;20317;-64
2021/12/04 03:53:22;;;;;;;13.48;5.03;;;;;;;;;;4951068;28;20545;-64
2021/12/04 03:55:49;;;;;;;13.85;5.28;;;;;;;;;;4949971;28;20479;-65
2021/12/04 03:58:14;;;;;;;12.38;5.60;;;;;;;;;;4949425;28;20034;-64
2021/12/04 04:00:40;;;;;;;14.60;5.20;;;;;;;;;;4950235;28;20030;-64
2021/12/04 04:03:05;;;;;;;14.27;5.80;;;;;;;;;;4949598;28;20401;-65
2021/12/04 04:05:30;;;;;;;13.90;5.78;;;;;;;;;;4950793;28;20412;-64
2021/12/04 04:07:56;;;;;;;15.73;5.60;;;;;;;;;;4949993;28;20414;-65
2021/12/04 04:10:21;;;;;;;12.73;5.28;;;;;;;;;;4949785;28;20412;-64
2021/12/04 04:12:48;;;;;;;10.05;4.72;;;;;;;;;;4949524;28;20461;-65
2021/12/04 04:15:13;;;;;;;14.13;6.22;;;;;;;;;;4949307;28;20076;-64
2021/12/04 04:17:42;;;;;;;12.23;4.68;;;;;;;;;;4949566;28;20117;-64
2021/12/04 04:20:13;;;;;;;12.20;5.47;;;;;;;;;;4949595;28;20341;-64
2021/12/04 04:22:39;;;;;;;14.93;5.90;;;;;;;;;;4949447;28;20053;-64
2021/12/04 04:25:06;;;;;;;14.10;5.32;;;;;;;;;;4950666;28;20030;-64
2021/12/04 04:27:32;;;;;;;11.75;4.95;;;;;;;;;;4950714;28;20022;-65
2021/12/04 04:29:57;;;;;;;12.48;5.60;;;;;;;;;;4949729;28;20042;-64
2021/12/04 04:32:24;;;;;;;13.15;5.32;;;;;;;;;;4950190;28;20499;-64
2021/12/04 04:34:53;;;;;;;11.38;5.28;;;;;;;;;;4949541;28;20429;-64
2021/12/04 04:37:34;;;;;;;13.85;5.35;;;;;;;;;;4950335;28;20455;-64
2021/12/04 04:59:44;;;;;;;10.18;5.20;;;;;;;;;;4969718;28;20408;-64
2021/12/04 05:02:37;;;;;;;12.35;5.40;;;;;;;;;;4968293;28;20440;-64
2021/12/04 05:13:18;;;;;;;11.02;4.97;;;;;;;;;;4969502;28;20590;-64
2021/12/04 05:18:33;;;;;;;9.85;4.53;;;;;;;;;;4968533;28;20559;-64
2021/12/04 05:21:04;;;;;;;10.18;4.80;;;;;;;;;;4968501;28;20403;-64
2021/12/04 05:23:41;;;;;;;12.65;4.80;;;;;;;;;;4970518;28;20433;-64
2021/12/04 05:26:11;;;;;;;10.45;4.70;;;;;;;;;;4972302;28;20400;-64
2021/12/04 05:28:36;;;;;;;14.20;5.30;;;;;;;;;;4971786;28;20417;-64
2021/12/04 05:31:02;;;;;;;11.00;4.55;;;;;;;;;;4972049;28;20325;-64
2021/12/04 05:33:28;;;;;;;11.40;5.18;;;;;;;;;;4971806;28;20460;-64
2021/12/04 05:35:53;;;;;;;10.60;4.55;;;;;;;;;;4972134;28;20464;-64
2021/12/04 05:38:19;;;;;;;10.70;4.80;;;;;;;;;;4972542;28;20511;-64
2021/12/04 05:40:45;;;;;;;12.18;4.65;;;;;;;;;;4971540;28;20029;-64
2021/12/04 05:43:12;;;;;;;10.07;4.47;;;;;;;;;;4973018;28;20025;-64
2021/12/04 05:45:41;;;;;;;17.85;5.03;;;;;;;;;;4972390;28;20021;-64
2021/12/04 05:55:56;;;;;;;12.02;4.25;;;;;;;;;;4972200;28;20437;-64
2021/12/04 05:58:22;;;;;;;10.15;4.45;;;;;;;;;;4971455;28;20451;-64
2021/12/04 06:00:48;;;;;;;8.15;4.10;;;;;;;;;;4971422;28;20383;-64
2021/12/04 06:03:13;;;;;;;9.45;4.85;;;;;;;;;;4971247;28;20380;-64
2021/12/04 06:05:39;;;;;;;9.27;4.72;;;;;;;;;;4971800;28;20476;-64
2021/12/04 06:08:04;;;;;;;7.38;4.22;;;;;;;;;;4971663;28;20112;-64
2021/12/04 06:10:30;;;;;;;12.30;4.50;;;;;;;;;;4971549;28;20423;-64
2021/12/04 06:12:56;;;;;;;9.57;5.00;;;;;;;;;;4972020;28;20356;-64
2021/12/04 06:15:21;;;;;;;12.25;4.53;;;;;;;;;;4971108;28;20026;-64
2021/12/04 06:17:49;;;;;;;11.35;4.38;;;;;;;;;;4970857;28;20436;-64
2021/12/04 06:22:58;;;;;;;13.43;5.22;;;;;;;;;;4970991;28;20594;-64
2021/12/04 06:25:27;;;;;;;9.82;3.67;;;;;;;;;;4970877;28;20411;-64
2021/12/04 06:27:53;;;;;;;12.80;4.80;;;;;;;;;;4971214;28;20420;-64
2021/12/04 06:30:20;;;;;;;12.05;4.57;;;;;;;;;;4970940;28;20044;-64
2021/12/04 06:32:51;;;;;;;11.05;4.57;;;;;;;;;;4971025;28;20029;-66
2021/12/04 06:35:17;;;;;;;12.25;4.50;;;;;;;;;;4952942;28;20413;-64
2021/12/04 06:37:43;;;;;;;11.93;4.30;;;;;;;;;;4971186;28;20328;-64
2021/12/04 06:40:13;;;;;;;15.52;4.95;;;;;;;;;;4970321;28;20322;-64
2021/12/04 06:42:40;;;;;;;9.68;4.60;;;;;;;;;;4970787;28;20340;-64
2021/12/04 06:45:06;;;;;;;9.13;4.57;;;;;;;;;;4970893;28;20029;-64
2021/12/04 06:47:32;;;;;;;12.50;4.43;;;;;;;;;;4970928;28;20057;-64
2021/12/04 06:50:05;;;;;;;13.02;4.72;;;;;;;;;;4970049;28;20056;-64
2021/12/04 06:52:30;;;;;;;10.82;5.10;;;;;;;;;;4969535;28;20068;-64
2021/12/04 06:54:58;;;;;;;15.75;4.93;;;;;;;;;;4970405;28;20433;-64
2021/12/04 06:57:24;;;;;;;12.07;5.57;;;;;;;;;;4970350;28;20373;-64
2021/12/04 06:59:52;;;;;;;10.10;4.80;;;;;;;;;;4970702;28;20332;-64
2021/12/04 07:02:17;;;;;;;12.43;4.45;;;;;;;;;;4970576;28;20037;-64
2021/12/04 07:04:43;;;;;;;12.00;5.70;;;;;;;;;;4970309;28;20577;-64
2021/12/04 07:07:09;;;;;;;13.77;5.43;;;;;;;;;;4970278;28;20456;-64
2021/12/04 07:09:36;;;;;;;10.50;4.70;;;;;;;;;;4971552;28;20457;-64
2021/12/04 07:12:02;;;;;;;12.75;6.13;;;;;;;;;;4970386;28;20442;-64
2021/12/04 07:14:27;;;;;;;14.52;6.18;;;;;;;;;;4970425;28;20034;-64
2021/12/04 07:16:53;;;;;;;15.15;5.20;;;;;;;;;;4969772;28;20449;-64
2021/12/04 07:19:19;;;;;;;16.23;6.03;;;;;;;;;;4970680;28;20328;-64
2021/12/04 07:21:45;;;;;;;14.43;5.95;;;;;;;;;;4969536;28;20635;-64
2021/12/04 07:24:11;;;;;;;15.23;7.68;;;;;;;;;;4969848;28;20033;-65
2021/12/04 07:26:37;;;;;;;14.27;5.72;;;;;;;;;;4969610;28;20433;-64
2021/12/04 07:29:03;;;;;;;16.75;6.68;;;;;;;;;;4970026;28;20173;-64
2021/12/04 07:31:29;;;;;;;17.40;6.82;;;;;;;;;;4969723;28;20456;-64
2021/12/04 07:33:55;;;;;;;21.83;8.32;;;;;;;;;;4969528;28;20501;-64
2021/12/04 07:36:21;;;;;;;15.68;6.22;;;;;;;;;;4951939;28;20408;-64
2021/12/04 07:38:47;;;;;;;17.90;7.03;;;;;;;;;;4951545;28;20033;-64
2021/12/04 07:41:12;;;;;;;15.85;6.72;;;;;;;;;;4969664;28;20519;-64
2021/12/04 07:43:37;;;;;;;23.15;8.88;;;;;;;;;;4970153;28;20524;-64
2021/12/04 07:46:03;;;;;;;17.88;7.35;;;;;;;;;;4968139;28;20523;-64
2021/12/04 07:48:28;;;;;;;21.35;7.05;;;;;;;;;;4969884;28;20055;-64
2021/12/04 07:50:55;;;;;;;16.42;8.38;;;;;;;;;;4969055;28;20372;-64
2021/12/04 07:53:21;;;;;;;19.73;8.15;;;;;;;;;;4968647;28;20372;-65
2021/12/04 07:55:46;;;;;;;19.35;8.55;;;;;;;;;;4969581;28;20368;-64
2021/12/04 07:58:11;;;;;;;17.58;6.93;;;;;;;;;;4969091;28;20033;-64
2021/12/04 08:00:36;;;;;;;15.88;7.00;;;;;;;;;;4969106;28;20488;-65
2021/12/04 08:03:02;;;;;;;14.27;6.78;;;;;;;;;;4970730;28;20075;-64
2021/12/04 08:05:29;;;;;;;18.98;8.35;;;;;;;;;;4968912;28;20368;-64
2021/12/04 08:07:55;;;;;;;15.07;7.68;;;;;;;;;;4969605;28;20409;-64
2021/12/04 08:10:21;;;;;;;16.02;7.47;;;;;;;;;;4969070;28;20372;-64
2021/12/04 08:12:47;;;;;;;18.17;8.15;;;;;;;;;;4969581;28;20029;-64
2021/12/04 08:15:13;;;;;;;16.42;7.18;;;;;;;;;;4969116;28;20030;-64
2021/12/04 08:17:43;;;;;;;16.45;7.07;;;;;;;;;;4969599;28;20521;-64
2021/12/04 08:20:10;;;;;;;13.95;7.00;;;;;;;;;;4969210;28;20059;-65
2021/12/04 08:22:35;;;;;;;17.00;7.03;;;;;;;;;;4968718;28;20483;-64
2021/12/04 08:25:01;;;;;;;18.63;7.50;;;;;;;;;;4969016;28;20364;-64
2021/12/04 08:27:27;;;;;;;15.38;7.53;;;;;;;;;;4968977;28;20445;-64
2021/12/04 08:29:53;;;;;;;18.85;7.88;;;;;;;;;;4969152;28;20322;-68
2021/12/04 08:32:22;;;;;;;20.25;7.45;;;;;;;;;;4969807;28;20432;-64
2021/12/04 08:34:48;;;;;;;;;;;;;;;;;;4970999;28;20421;-64
2021/12/04 08:37:13;;;;;;;15.10;7.03;;;;;;;;;;4968495;28;20347;-64
2021/12/04 08:39:38;;;;;;;17.13;7.78;;;;;;;;;;4968586;28;20356;-64
2021/12/04 08:42:04;;;;;;;17.73;6.88;;;;;;;;;;4968681;28;20479;-64
2021/12/04 08:44:30;;;;;;;16.95;7.75;;;;;;;;;;4968583;28;20121;-64
2021/12/04 08:46:56;;;;;;;19.40;7.70;;;;;;;;;;4970121;28;20356;-64
2021/12/04 08:49:22;;;;;;;18.50;8.38;;;;;;;;;;4968448;28;20391;-64
2021/12/04 08:51:48;;;;;;;20.10;8.50;;;;;;;;;;4968722;28;20412;-64
2021/12/04 08:54:14;;;;;;;13.73;7.68;;;;;;;;;;4968444;28;20179;-65
2021/12/04 08:56:39;;;;;;;18.58;7.75;;;;;;;;;;4969665;28;20294;-64
2021/12/04 08:59:06;;;;;;;18.90;6.95;;;;;;;;;;4972327;28;20352;-64
2021/12/04 09:01:34;;;;;;;20.92;8.57;;;;;;;;;;4972554;28;20021;-65
2021/12/04 09:04:07;;;;;;;21.52;8.05;;;;;;;;;;4972010;28;20502;-64
2021/12/04 09:06:39;;;;;;;20.35;9.15;;;;;;;;;;4972601;28;20049;-64
2021/12/04 09:09:06;;;;;;;16.60;7.50;;;;;;;;;;4971739;28;20547;-65
2021/12/04 09:11:47;;;;;;;19.40;7.78;;;;;;;;;;4973092;28;20415;-65
2021/12/04 09:14:17;;;;;;;19.83;7.82;;;;;;;;;;4972499;28;20455;-64
2021/12/04 09:16:43;;;;;;;18.40;7.97;;;;;;;;;;4972391;28;20432;-64
2021/12/04 09:19:08;;;;;;;18.55;7.10;;;;;;;;;;4972247;28;20559;-65
2021/12/04 09:21:36;;;;;;;19.60;8.10;;;;;;;;;;4971794;28;20452;-64
2021/12/04 09:24:12;;;;;;;16.07;7.83;;;;;;;;;;4973205;28;20506;-65
2021/12/04 09:59:25;;;;;;;18.13;6.45;;;;;;;;;;4972666;28;20329;-66
2021/12/04 10:04:54;;;;;;;16.33;6.35;;;;;;;;;;4971265;28;20579;-65
2021/12/04 10:13:18;;;;;;;13.25;6.25;;;;;;;;;;4972133;28;20376;-64
2021/12/04 10:34:33;;;;;;;13.60;6.00;;;;;;;;;;4972996;28;20328;-65
2021/12/04 10:37:12;;;;;;;17.27;6.47;;;;;;;;;;4969952;28;20316;-63
2021/12/04 10:39:37;;;;;;;11.88;5.72;;;;;;;;;;4969963;28;20172;-65
2021/12/04 10:42:07;;;;;;;14.63;5.85;;;;;;;;;;4970837;28;20014;-67
2021/12/04 10:44:38;;;;;;;9.35;5.32;;;;;;;;;;4952766;28;20452;-64
2021/12/04 10:47:07;;;;;;;12.77;5.35;;;;;;;;;;4985309;28;20021;-63
2021/12/04 10:49:58;;;;;;;16.52;6.07;;;;;;;;;;4970961;28;20461;-64
2021/12/04 10:53:18;;;;;;;10.80;5.10;;;;;;;;;;4969953;28;20461;-65
2021/12/04 11:03:23;;;;;;;14.70;6.38;;;;;;;;;;4970188;28;20034;-64
2021/12/04 11:20:04;;;;;;;16.17;5.55;;;;;;;;;;4969980;28;20372;-65
2021/12/04 11:38:28;;;;;;;14.40;5.45;;;;;;;;;;4967183;28;20328;-65
2021/12/04 11:41:01;;;;;;;12.20;5.25;;;;;;;;;;4969530;28;20415;-66
2021/12/04 11:43:35;;;;;;;16.75;5.88;;;;;;;;;;4969999;28;20328;-66
2021/12/04 11:46:17;;;;;;;14.52;5.93;;;;;;;;;;4969447;28;20072;-66
2021/12/04 11:48:43;;;;;;;15.88;5.32;;;;;;;;;;4969079;28;20444;-66
2021/12/04 11:51:15;;;;;;;11.52;4.60;;;;;;;;;;4968932;28;20052;-67
2021/12/04 11:53:41;;;;;;;26.50;4.95;;;;;;;;;;4968568;28;20440;-66
2021/12/04 11:56:14;;;;;;;13.95;4.68;;;;;;;;;;4970576;28;20459;-66
2021/12/04 11:58:41;;;;;;;15.18;5.10;;;;;;;;;;4968517;28;20455;-65
2021/12/04 12:01:21;;;;;;;19.67;4.30;;;;;;;;;;4969983;28;20371;-66
2021/12/04 12:03:55;;;;;;;17.80;5.15;;;;;;;;;;4969616;28;20456;-65
2021/12/04 12:06:30;;;;;;;11.93;4.45;;;;;;;;;;4969962;28;20100;-65
2021/12/04 12:09:15;;;;;;;13.50;5.45;;;;;;;;;;4970310;28;20402;-66
2021/12/04 12:11:55;;;;;;;11.50;4.70;;;;;;;;;;4969883;28;20106;-66
2021/12/04 12:14:35;;;;;;;12.60;4.72;;;;;;;;;;4969036;28;20372;-66
2021/12/04 12:17:01;;;;;;;20.55;4.72;;;;;;;;;;4969151;28;20396;-66
2021/12/04 12:19:30;;;;;;;13.02;4.55;;;;;;;;;;4951873;28;20322;-66
2021/12/04 12:22:03;;;;;;;;;;;;;;;;;;4970449;28;20360;-65
2021/12/04 12:24:46;;;;;;;13.65;4.05;;;;;;;;;;4983277;28;20339;-65
2021/12/04 12:33:08;;;;;;;20.23;4.75;;;;;;;;;;4971189;28;20052;-66
2021/12/04 12:38:55;;;;;;;;;;;;;;;;;;4973405;28;20455;-69
2021/12/04 12:41:37;;;;;;;8.20;3.93;;;;;;;;;;4939835;28;20266;-65
2021/12/04 12:44:14;;;;;;;8.57;3.80;;;;;;;;;;4972656;28;20479;-65
2021/12/04 12:46:44;;;;;;;12.68;4.35;;;;;;;;;;4973263;28;20029;-66
2021/12/04 12:49:27;;;;;;;11.35;4.13;;;;;;;;;;4972635;28;20336;-67
2021/12/04 12:52:04;;;;;;;12.88;5.93;;;;;;;;;;4952910;28;20357;-65
2021/12/04 12:54:52;;;;;;;12.18;4.22;;;;;;;;;;4970716;28;20506;-66
2021/12/04 12:57:27;;;;;;;11.52;3.45;;;;;;;;;;4963943;28;20402;-65
2021/12/04 13:14:12;;;;;;;9.88;4.95;;;;;;;;;;4958255;28;20372;-69
2021/12/04 13:16:41;;;;;;;7.60;4.22;;;;;;;;;;4972135;28;20416;-66
2021/12/04 13:19:12;;;;;;;17.93;4.80;;;;;;;;;;4972261;28;20395;-65
2021/12/04 13:21:40;;;;;;;29.20;4.55;;;;;;;;;;4972176;28;20026;-66
2021/12/04 13:24:07;;;;;;;14.93;4.90;;;;;;;;;;4971655;28;20371;-66
2021/12/04 13:26:37;;;;;;;13.68;4.68;;;;;;;;;;4973142;28;20464;-66
2021/12/04 13:29:05;;;;;;;10.35;4.80;;;;;;;;;;4971331;28;20127;-66
2021/12/04 13:31:32;;;;;;;11.50;5.40;;;;;;;;;;4972000;28;20567;-66
2021/12/04 13:33:57;;;;;;;16.33;5.10;;;;;;;;;;4971697;28;20452;-65
2021/12/04 13:36:26;;;;;;;11.02;4.50;;;;;;;;;;4972220;28;20511;-68
2021/12/04 13:39:04;;;;;;;10.88;5.13;;;;;;;;;;4972009;28;20367;-67
2021/12/04 13:41:31;;;;;;;15.25;6.10;;;;;;;;;;4954232;28;20383;-66
2021/12/04 13:43:59;;;;;;;11.55;5.20;;;;;;;;;;4971202;28;20444;-66
2021/12/04 13:46:25;;;;;;;13.55;5.20;;;;;;;;;;4971578;28;20425;-66
2021/12/04 13:48:51;;;;;;;18.85;5.78;;;;;;;;;;4972091;28;20409;-66
2021/12/04 13:51:17;;;;;;;18.58;6.38;;;;;;;;;;4953622;28;20475;-66
2021/12/04 13:53:46;;;;;;;16.75;5.85;;;;;;;;;;4948304;28;20438;-66
2021/12/04 13:56:16;;;;;;;11.15;5.20;;;;;;;;;;5012454;28;20419;-66
2021/12/04 13:58:54;;;;;;;13.55;5.30;;;;;;;;;;5011257;28;20393;-66
2021/12/04 14:01:20;;;;;;;11.73;5.82;;;;;;;;;;4990581;28;20447;-66
2021/12/04 14:03:47;;;;;;;14.07;6.45;;;;;;;;;;4992881;28;20426;-66
2021/12/04 14:06:16;;;;;;;11.70;5.30;;;;;;;;;;5010587;28;20403;-65
2021/12/04 14:08:42;;;;;;;14.95;5.10;;;;;;;;;;5011016;28;20043;-65
2021/12/04 14:11:08;;;;;;;12.60;4.97;;;;;;;;;;5011657;28;20307;-66
2021/12/04 14:13:37;;;;;;;16.85;5.93;;;;;;;;;;5010462;28;20309;-67
2021/12/04 14:16:02;;;;;;;10.95;5.97;;;;;;;;;;5011587;28;20434;-65
2021/12/04 14:18:29;;;;;;;14.45;5.05;;;;;;;;;;5009572;28;20439;-66
2021/12/04 14:21:00;;;;;;;15.77;6.45;;;;;;;;;;5010348;28;20028;-66
2021/12/04 14:23:27;;;;;;;12.68;4.90;;;;;;;;;;5010708;28;20119;-66
2021/12/04 14:25:55;;;;;;;20.55;7.20;;;;;;;;;;5010761;28;20426;-67
2021/12/04 14:28:31;;;;;;;14.57;5.55;;;;;;;;;;5010263;28;20439;-65
2021/12/04 14:30:57;;;;;;;22.58;5.75;;;;;;;;;;4993200;28;20047;-65
2021/12/04 14:33:26;;;;;;;14.38;5.78;;;;;;;;;;5010128;28;20036;-65
2021/12/04 14:35:52;;;;;;;;;;;;;;;;;;5011418;28;20386;-65
2021/12/04 14:38:24;;;;;;;197.85;20.42;;;;;;;;;;5009791;28;20325;-65
2021/12/04 14:41:02;;;;;;;187.27;21.77;;;;;;;;;;5025265;28;20483;-65
2021/12/04 14:43:31;;;;;;;184.27;18.75;;;;;;;;;;5008653;28;20295;-65
2021/12/04 14:45:58;;;;;;;;;;;;;;;;;;5010175;28;20458;-64
2021/12/04 14:48:35;;;;;;;174.02;20.85;;;;;;;;;;5010353;28;20335;-65
2021/12/04 14:51:06;;;;;;;217.13;19.77;;;;;;;;;;4991362;28;20431;-64
2021/12/04 14:53:34;;;;;;;150.45;19.80;;;;;;;;;;5010215;28;20118;-64
2021/12/04 14:56:04;;;;;;;173.07;18.52;;;;;;;;;;5008875;28;20378;-65
2021/12/04 14:58:30;;;;;;;194.15;17.33;;;;;;;;;;5010490;28;20024;-65
2021/12/04 15:01:03;;;;;;;197.00;19.90;;;;;;;;;;4990914;28;20442;-65
2021/12/04 15:03:41;;;;;;;135.48;14.93;;;;;;;;;;5007298;28;20469;-65
2021/12/04 15:06:11;;;;;;;138.27;19.50;;;;;;;;;;5009816;28;20463;-68
2021/12/04 15:08:39;;;;;;;128.13;15.73;;;;;;;;;;5009274;28;20551;-64
2021/12/04 15:11:16;;;;;;;116.68;15.70;;;;;;;;;;5009663;28;20340;-65
2021/12/04 15:13:57;;;;;;;102.63;14.00;;;;;;;;;;5009083;28;20474;-65
2021/12/04 15:16:36;;;;;;;123.30;13.93;;;;;;;;;;5009374;28;20518;-65
2021/12/04 15:19:28;;;;;;;105.60;12.32;;;;;;;;;;5009181;28;20558;-64
2021/12/04 15:21:58;;;;;;;86.75;12.25;;;;;;;;;;5008403;28;20443;-65
2021/12/04 15:24:28;;;;;;;74.00;12.90;;;;;;;;;;5009229;28;20501;-68
2021/12/04 15:27:01;;;;;;;58.63;9.60;;;;;;;;;;5008589;28;20380;-68
2021/12/04 15:29:29;;;;;;;84.65;12.27;;;;;;;;;;5009116;28;20368;-66
2021/12/04 15:31:57;;;;;;;83.18;12.10;;;;;;;;;;4991386;28;20089;-65
2021/12/04 15:34:34;;;;;;;84.03;12.23;;;;;;;;;;5008413;28;20052;-66
2021/12/04 15:37:04;;;;;;;59.15;10.75;;;;;;;;;;5009098;28;20474;-66
2021/12/04 15:39:45;;;;;;;84.13;11.95;;;;;;;;;;4989044;28;20507;-66
2021/12/04 15:42:35;;;;;;;66.97;10.15;;;;;;;;;;4989500;28;20416;-65
2021/12/04 15:45:28;;;;;;;92.45;11.88;;;;;;;;;;4989263;28;20443;-64
2021/12/04 15:48:31;;;;;;;88.82;12.35;;;;;;;;;;4989045;28;20040;-67
2021/12/04 15:51:15;;;;;;;66.57;10.00;;;;;;;;;;4989119;28;20522;-64
2021/12/04 15:53:52;;;;;;;67.25;9.73;;;;;;;;;;4988730;28;20440;-63
2021/12/04 15:56:36;;;;;;;53.85;10.75;;;;;;;;;;4988718;28;20513;-64
2021/12/04 15:59:01;;;;;;;45.40;8.30;;;;;;;;;;5005337;28;20417;-63
2021/12/04 16:01:29;;;;;;;29.83;8.40;;;;;;;;;;4932532;28;20455;-63
2021/12/04 16:03:54;;;;;;;32.00;7.38;;;;;;;;;;5009127;28;20435;-63
2021/12/04 16:06:20;;;;;;;40.17;8.38;;;;;;;;;;5008584;28;20450;-63
2021/12/04 16:08:45;;;;;;;49.20;7.28;;;;;;;;;;4990000;28;20462;-64
2021/12/04 16:11:14;;;;;;;29.30;7.65;;;;;;;;;;5007166;28;20279;-66
2021/12/04 16:13:39;;;;;;;41.58;6.57;;;;;;;;;;5006288;28;20378;-64
2021/12/04 16:16:33;;;;;;;50.17;8.38;;;;;;;;;;5007680;28;20040;-64
2021/12/04 16:19:00;;;;;;;32.22;7.75;;;;;;;;;;4988202;28;20356;-64
2021/12/04 16:21:27;;;;;;;55.80;7.82;;;;;;;;;;5007612;28;20102;-64
2021/12/04 16:23:53;;;;;;;28.95;6.20;;;;;;;;;;5009186;28;20315;-64
2021/12/04 16:26:23;;;;;;;31.65;6.70;;;;;;;;;;5007632;28;20181;-64
2021/12/04 16:29:09;;;;;;;26.00;6.43;;;;;;;;;;5009365;28;20339;-64
2021/12/04 16:32:00;;;;;;;38.15;7.45;;;;;;;;;;5008021;28;20517;-64
2021/12/04 16:39:54;;;;;;;32.75;6.47;;;;;;;;;;4927456;28;20105;-64
2021/12/04 16:42:19;;;;;;;25.48;6.63;;;;;;;;;;4991873;28;20447;-64
2021/12/04 16:44:45;;;;;;;28.77;6.78;;;;;;;;;;4990315;28;20526;-64
2021/12/04 16:47:10;;;;;;;19.15;5.45;;;;;;;;;;5009254;28;20358;-64
2021/12/04 16:49:36;;;;;;;38.75;7.25;;;;;;;;;;5008629;28;20459;-65
2021/12/04 16:55:19;;;;;;;22.05;5.93;;;;;;;;;;5009437;28;20597;-64
2021/12/04 16:57:58;;;;;;;30.60;6.50;;;;;;;;;;5006567;28;20466;-64
2021/12/04 17:00:23;;;;;;;27.00;6.80;;;;;;;;;;5008442;28;20374;-64
2021/12/04 17:02:49;;;;;;;34.80;7.03;;;;;;;;;;5008772;28;20343;-64
2021/12/04 17:05:15;;;;;;;24.13;6.82;;;;;;;;;;5007736;28;20544;-64
2021/12/04 17:07:42;;;;;;;31.33;6.55;;;;;;;;;;5008098;28;20518;-64
2021/12/04 17:10:08;;;;;;;25.42;6.45;;;;;;;;;;5008302;28;20351;-64
2021/12/04 17:12:36;;;;;;;20.90;6.10;;;;;;;;;;5009289;28;20059;-64
2021/12/04 17:15:07;;;;;;;22.52;6.43;;;;;;;;;;5008461;28;20420;-64
2021/12/04 17:17:35;;;;;;;22.17;6.80;;;;;;;;;;5008051;28;20363;-64
2021/12/04 17:20:02;;;;;;;27.80;6.55;;;;;;;;;;5011408;28;20048;-64
2021/12/04 17:22:29;;;;;;;19.13;7.07;;;;;;;;;;5011834;28;20494;-65
2021/12/04 17:24:54;;;;;;;24.42;7.72;;;;;;;;;;5011706;28;20054;-64
2021/12/04 17:27:19;;;;;;;23.55;6.70;;;;;;;;;;5012220;28;20438;-66
2021/12/04 17:29:47;;;;;;;29.17;6.03;;;;;;;;;;5012132;28;20082;-64
2021/12/04 17:32:13;;;;;;;21.73;7.57;;;;;;;;;;5011084;28;20331;-64
2021/12/04 17:34:39;;;;;;;28.65;7.78;;;;;;;;;;5011622;28;20043;-64
2021/12/04 17:37:04;;;;;;;17.25;6.65;;;;;;;;;;5010857;28;20431;-64
2021/12/04 17:39:29;;;;;;;23.63;7.15;;;;;;;;;;5011524;28;20051;-64
2021/12/04 17:41:55;;;;;;;19.83;8.13;;;;;;;;;;5011948;28;20107;-64
2021/12/04 17:44:21;;;;;;;16.50;6.60;;;;;;;;;;5011004;28;20340;-64
2021/12/04 17:46:50;;;;;;;19.10;6.85;;;;;;;;;;5011998;28;20477;-64
2021/12/04 17:49:16;;;;;;;28.60;7.47;;;;;;;;;;5012454;28;20373;-65
2021/12/04 17:51:42;;;;;;;29.02;8.60;;;;;;;;;;5006428;28;20464;-64